createdAt,value
2016-07-31T00:00:32.727Z,1007.84
2016-07-31T00:01:32.752Z,1007.85
2016-07-31T00:02:32.779Z,1007.86
2016-07-31T00:03:32.805Z,1007.81
2016-07-31T00:04:32.832Z,1007.85
2016-07-31T00:05:32.861Z,1007.83
2016-07-31T00:06:32.885Z,1007.81
2016-07-31T00:07:32.912Z,1007.82
2016-07-31T00:08:32.939Z,1007.82
2016-07-31T00:09:32.966Z,1007.82
2016-07-31T00:10:32.992Z,1007.8
2016-07-31T00:11:33.019Z,1007.78
2016-07-31T00:12:33.048Z,1007.78
2016-07-31T00:13:33.073Z,1007.79
2016-07-31T00:14:33.100Z,1007.82
2016-07-31T00:15:33.127Z,1007.82
2016-07-31T00:16:33.154Z,1007.8
2016-07-31T00:17:33.181Z,1007.82
2016-07-31T00:18:33.206Z,1007.79
2016-07-31T00:19:33.234Z,1007.79
2016-07-31T00:20:33.259Z,1007.81
2016-07-31T00:21:33.288Z,1007.8
2016-07-31T00:22:33.312Z,1007.79
2016-07-31T00:23:33.342Z,1007.76
2016-07-31T00:24:33.367Z,1007.75
2016-07-31T00:26:33.468Z,1007.77
2016-07-31T00:27:33.446Z,1007.77
2016-07-31T00:28:33.473Z,1007.79
2016-07-31T00:29:33.498Z,1007.8
2016-07-31T00:30:33.526Z,1007.77
2016-07-31T00:31:33.553Z,1007.77
2016-07-31T00:32:33.580Z,1007.76
2016-07-31T00:33:33.608Z,1007.73
2016-07-31T00:34:33.634Z,1007.72
2016-07-31T00:35:33.657Z,1007.75
2016-07-31T00:36:33.685Z,1007.8
2016-07-31T00:37:33.712Z,1007.82
2016-07-31T00:38:33.738Z,1007.81
2016-07-31T00:39:33.765Z,1007.81
2016-07-31T00:40:33.791Z,1007.78
2016-07-31T00:42:33.847Z,1007.77
2016-07-31T00:43:33.873Z,1007.79
2016-07-31T00:44:33.900Z,1007.78
2016-07-31T00:45:33.927Z,1007.77
2016-07-31T00:46:33.952Z,1007.77
2016-07-31T00:47:33.980Z,1007.81
2016-07-31T00:48:34.005Z,1007.8
2016-07-31T00:49:34.033Z,1007.82
2016-07-31T00:50:34.059Z,1007.8
2016-07-31T00:51:34.086Z,1007.77
2016-07-31T00:52:34.214Z,1007.77
2016-07-31T00:53:34.139Z,1007.75
2016-07-31T00:54:34.164Z,1007.74
2016-07-31T00:55:34.191Z,1007.73
2016-07-31T00:56:34.224Z,1007.78
2016-07-31T00:58:34.272Z,1007.74
2016-07-31T00:59:34.299Z,1007.76
2016-07-31T01:00:34.326Z,1007.74
2016-07-31T01:01:34.351Z,1007.74
2016-07-31T01:02:34.376Z,1007.75
2016-07-31T01:03:34.403Z,1007.8
2016-07-31T01:04:34.432Z,1007.76
2016-07-31T01:05:34.454Z,1007.79
2016-07-31T01:06:34.484Z,1007.76
2016-07-31T01:07:34.509Z,1007.77
2016-07-31T01:08:34.534Z,1007.78
2016-07-31T01:09:34.561Z,1007.75
2016-07-31T01:10:34.591Z,1007.75
2016-07-31T01:11:34.617Z,1007.77
2016-07-31T01:12:34.641Z,1007.71
2016-07-31T01:14:34.697Z,1007.72
2016-07-31T01:15:34.721Z,1007.72
2016-07-31T01:16:34.749Z,1007.69
2016-07-31T01:17:34.774Z,1007.73
2016-07-31T01:18:34.803Z,1007.71
2016-07-31T01:19:34.828Z,1007.74
2016-07-31T01:20:34.855Z,1007.72
2016-07-31T01:21:34.882Z,1007.71
2016-07-31T01:22:34.906Z,1007.7
2016-07-31T01:23:34.934Z,1007.74
2016-07-31T01:24:34.960Z,1007.73
2016-07-31T01:25:34.987Z,1007.76
2016-07-31T01:26:35.012Z,1007.76
2016-07-31T01:27:35.041Z,1007.76
2016-07-31T01:29:35.093Z,1007.8
2016-07-31T01:30:35.121Z,1007.78
2016-07-31T01:31:35.150Z,1007.78
2016-07-31T01:32:35.171Z,1007.75
2016-07-31T01:33:35.198Z,1007.71
2016-07-31T01:34:35.226Z,1007.79
2016-07-31T01:35:35.253Z,1007.72
2016-07-31T01:36:35.285Z,1007.69
2016-07-31T01:37:35.303Z,1007.72
2016-07-31T01:38:35.332Z,1007.67
2016-07-31T01:39:35.359Z,1007.65
2016-07-31T01:40:35.385Z,1007.62
2016-07-31T01:41:35.411Z,1007.62
2016-07-31T01:42:35.435Z,1007.61
2016-07-31T01:43:35.464Z,1007.62
2016-07-31T01:44:35.539Z,1007.66
2016-07-31T01:45:35.514Z,1007.66
2016-07-31T01:46:35.541Z,1007.63
2016-07-31T01:47:35.567Z,1007.65
2016-07-31T01:48:35.593Z,1007.62
2016-07-31T01:49:35.622Z,1007.58
2016-07-31T01:50:35.646Z,1007.58
2016-07-31T01:51:35.675Z,1007.58
2016-07-31T01:52:35.699Z,1007.59
2016-07-31T01:53:35.727Z,1007.57
2016-07-31T01:54:35.753Z,1007.58
2016-07-31T01:55:35.780Z,1007.56
2016-07-31T01:56:35.806Z,1007.51
2016-07-31T01:57:35.830Z,1007.58
2016-07-31T01:58:35.856Z,1007.52
2016-07-31T01:59:35.884Z,1007.5
2016-07-31T02:01:35.938Z,1007.54
2016-07-31T02:02:35.964Z,1007.53
2016-07-31T02:03:35.989Z,1007.56
2016-07-31T02:04:36.027Z,1007.6
2016-07-31T02:05:36.041Z,1007.54
2016-07-31T02:06:36.067Z,1007.54
2016-07-31T02:07:36.092Z,1007.57
2016-07-31T02:08:36.121Z,1007.55
2016-07-31T02:09:36.148Z,1007.56
2016-07-31T02:10:36.173Z,1007.57
2016-07-31T02:11:36.197Z,1007.56
2016-07-31T02:12:36.225Z,1007.58
2016-07-31T02:13:36.250Z,1007.57
2016-07-31T02:14:36.275Z,1007.61
2016-07-31T02:15:36.302Z,1007.55
2016-07-31T02:17:36.357Z,1007.55
2016-07-31T02:18:36.380Z,1007.58
2016-07-31T02:19:36.407Z,1007.59
2016-07-31T02:20:36.433Z,1007.57
2016-07-31T02:21:36.461Z,1007.56
2016-07-31T02:22:36.487Z,1007.6
2016-07-31T02:23:36.512Z,1007.54
2016-07-31T02:24:36.541Z,1007.55
2016-07-31T02:25:36.565Z,1007.53
2016-07-31T02:26:36.593Z,1007.53
2016-07-31T02:27:36.616Z,1007.52
2016-07-31T02:28:36.642Z,1007.48
2016-07-31T02:29:36.669Z,1007.47
2016-07-31T02:30:36.695Z,1007.46
2016-07-31T02:31:36.723Z,1007.43
2016-07-31T02:33:36.775Z,1007.45
2016-07-31T02:34:36.801Z,1007.46
2016-07-31T02:35:36.829Z,1007.43
2016-07-31T02:36:36.861Z,1007.43
2016-07-31T02:37:36.877Z,1007.42
2016-07-31T02:38:36.904Z,1007.44
2016-07-31T02:39:36.931Z,1007.44
2016-07-31T02:40:36.958Z,1007.42
2016-07-31T02:41:36.982Z,1007.48
2016-07-31T02:42:37.008Z,1007.41
2016-07-31T02:43:37.034Z,1007.41
2016-07-31T02:44:37.063Z,1007.38
2016-07-31T02:45:37.089Z,1007.4
2016-07-31T02:46:37.113Z,1007.41
2016-07-31T02:47:37.141Z,1007.41
2016-07-31T02:49:37.193Z,1007.38
2016-07-31T02:50:37.220Z,1007.37
2016-07-31T02:51:37.246Z,1007.37
2016-07-31T02:52:37.270Z,1007.34
2016-07-31T02:53:37.296Z,1007.35
2016-07-31T02:54:37.321Z,1007.34
2016-07-31T02:55:37.356Z,1007.33
2016-07-31T02:56:37.386Z,1007.34
2016-07-31T02:57:37.402Z,1007.34
2016-07-31T02:58:37.425Z,1007.31
2016-07-31T02:59:37.454Z,1007.33
2016-07-31T03:00:37.480Z,1007.34
2016-07-31T03:01:37.504Z,1007.31
2016-07-31T03:02:37.531Z,1007.3
2016-07-31T03:04:37.583Z,1007.29
2016-07-31T03:05:37.611Z,1007.29
2016-07-31T03:06:37.635Z,1007.32
2016-07-31T03:07:37.664Z,1007.31
2016-07-31T03:08:37.689Z,1007.32
2016-07-31T03:09:37.715Z,1007.29
2016-07-31T03:10:37.740Z,1007.32
2016-07-31T03:11:37.765Z,1007.35
2016-07-31T03:12:37.793Z,1007.31
2016-07-31T03:13:37.817Z,1007.34
2016-07-31T03:14:37.844Z,1007.37
2016-07-31T03:15:37.872Z,1007.35
2016-07-31T03:16:37.897Z,1007.34
2016-07-31T03:17:37.923Z,1007.4
2016-07-31T03:18:37.947Z,1007.35
2016-07-31T03:19:37.975Z,1007.38
2016-07-31T03:20:37.999Z,1007.37
2016-07-31T03:21:38.027Z,1007.38
2016-07-31T03:22:38.052Z,1007.4
2016-07-31T03:23:38.076Z,1007.46
2016-07-31T03:24:38.103Z,1007.45
2016-07-31T03:25:38.129Z,1007.49
2016-07-31T03:26:38.157Z,1007.47
2016-07-31T03:27:38.180Z,1007.47
2016-07-31T03:28:38.207Z,1007.46
2016-07-31T03:29:38.232Z,1007.51
2016-07-31T03:30:38.259Z,1007.52
2016-07-31T03:31:38.284Z,1007.53
2016-07-31T03:32:38.310Z,1007.53
2016-07-31T03:33:38.339Z,1007.55
2016-07-31T03:34:38.362Z,1007.54
2016-07-31T03:36:38.414Z,1007.61
2016-07-31T03:37:38.443Z,1007.62
2016-07-31T03:38:38.466Z,1007.6
2016-07-31T03:39:38.499Z,1007.63
2016-07-31T03:40:38.519Z,1007.65
2016-07-31T03:41:38.545Z,1007.69
2016-07-31T03:42:38.570Z,1007.67
2016-07-31T03:44:38.623Z,1007.72
2016-07-31T03:45:38.648Z,1007.7
2016-07-31T03:46:38.676Z,1007.67
2016-07-31T03:47:38.700Z,1007.68
2016-07-31T03:48:38.729Z,1007.66
2016-07-31T03:49:38.753Z,1007.68
2016-07-31T03:50:38.781Z,1007.69
2016-07-31T03:52:38.834Z,1007.72
2016-07-31T03:53:38.857Z,1007.65
2016-07-31T03:54:38.883Z,1007.75
2016-07-31T03:55:38.910Z,1007.72
2016-07-31T03:56:38.935Z,1007.75
2016-07-31T03:57:38.961Z,1007.72
2016-07-31T03:59:39.017Z,1007.75
2016-07-31T04:00:39.041Z,1007.74
2016-07-31T04:01:39.068Z,1007.77
2016-07-31T04:02:39.092Z,1007.78
2016-07-31T04:03:39.118Z,1007.74
2016-07-31T04:04:39.146Z,1007.72
2016-07-31T04:05:39.173Z,1007.72
2016-07-31T04:06:39.199Z,1007.71
2016-07-31T04:08:39.251Z,1007.68
2016-07-31T04:09:39.275Z,1007.67
2016-07-31T04:10:39.303Z,1007.65
2016-07-31T04:11:39.327Z,1007.61
2016-07-31T04:12:39.356Z,1007.64
2016-07-31T04:14:39.409Z,1007.6
2016-07-31T04:15:39.435Z,1007.59
2016-07-31T04:16:39.461Z,1007.65
2016-07-31T04:17:39.488Z,1007.59
2016-07-31T04:18:39.510Z,1007.6
2016-07-31T04:19:39.537Z,1007.61
2016-07-31T04:20:39.564Z,1007.59
2016-07-31T04:21:39.591Z,1007.6
2016-07-31T04:22:39.615Z,1007.6
2016-07-31T04:24:39.668Z,1007.6
2016-07-31T04:25:39.695Z,1007.54
2016-07-31T04:26:39.722Z,1007.52
2016-07-31T04:27:39.749Z,1007.49
2016-07-31T04:28:39.776Z,1007.47
2016-07-31T04:29:39.800Z,1007.41
2016-07-31T04:30:39.826Z,1007.41
2016-07-31T04:31:39.855Z,1007.41
2016-07-31T04:32:39.881Z,1007.38
2016-07-31T04:33:39.905Z,1007.4
2016-07-31T04:34:39.932Z,1007.41
2016-07-31T04:35:39.958Z,1007.4
2016-07-31T04:36:39.985Z,1007.45
2016-07-31T04:37:40.012Z,1007.44
2016-07-31T04:39:40.065Z,1007.43
2016-07-31T04:40:40.093Z,1007.46
2016-07-31T04:41:40.120Z,1007.48
2016-07-31T04:42:40.146Z,1007.45
2016-07-31T04:43:40.173Z,1007.46
2016-07-31T04:44:40.199Z,1007.45
2016-07-31T04:45:40.226Z,1007.47
2016-07-31T04:46:40.250Z,1007.45
2016-07-31T04:47:40.282Z,1007.46
2016-07-31T04:48:40.302Z,1007.43
2016-07-31T04:49:40.331Z,1007.43
2016-07-31T04:50:40.357Z,1007.37
2016-07-31T04:51:40.383Z,1007.41
2016-07-31T04:52:40.408Z,1007.41
2016-07-31T04:53:40.435Z,1007.42
2016-07-31T04:54:40.462Z,1007.44
2016-07-31T04:55:40.493Z,1007.53
2016-07-31T04:56:40.516Z,1007.61
2016-07-31T04:57:40.545Z,1007.76
2016-07-31T04:58:40.568Z,1007.78
2016-07-31T04:59:40.595Z,1007.69
2016-07-31T05:00:40.673Z,1007.81
2016-07-31T05:01:40.651Z,1007.77
2016-07-31T05:02:40.679Z,1007.82
2016-07-31T05:03:40.707Z,1007.76
2016-07-31T05:04:40.735Z,1007.83
2016-07-31T05:05:40.768Z,1007.87
2016-07-31T05:06:40.794Z,1007.74
2016-07-31T05:07:40.825Z,1007.61
2016-07-31T05:08:40.856Z,1007.46
2016-07-31T05:09:40.883Z,1007.36
2016-07-31T05:11:40.944Z,1007.39
2016-07-31T05:12:40.976Z,1007.45
2016-07-31T05:13:41.004Z,1007.42
2016-07-31T05:14:41.033Z,1007.42
2016-07-31T05:15:41.066Z,1007.4
2016-07-31T05:16:41.096Z,1007.43
2016-07-31T05:17:41.136Z,1007.42
2016-07-31T05:18:41.152Z,1007.48
2016-07-31T05:19:41.184Z,1007.41
2016-07-31T05:20:41.214Z,1007.42
2016-07-31T05:21:41.241Z,1007.37
2016-07-31T05:22:41.274Z,1007.39
2016-07-31T05:23:41.304Z,1007.39
2016-07-31T05:24:41.330Z,1007.49
2016-07-31T05:25:41.360Z,1007.5
2016-07-31T05:27:41.420Z,1007.52
2016-07-31T05:28:41.450Z,1007.54
2016-07-31T05:29:41.486Z,1007.58
2016-07-31T05:30:41.510Z,1007.66
2016-07-31T05:31:41.541Z,1007.79
2016-07-31T05:32:41.570Z,1007.77
2016-07-31T05:33:41.601Z,1007.74
2016-07-31T05:34:41.633Z,1007.88
2016-07-31T05:35:41.663Z,1007.87
2016-07-31T05:36:41.697Z,1007.96
2016-07-31T05:37:41.727Z,1007.99
2016-07-31T05:38:41.757Z,1008
2016-07-31T05:39:41.792Z,1008.01
2016-07-31T05:40:41.822Z,1007.86
2016-07-31T05:41:41.856Z,1007.91
2016-07-31T05:43:41.926Z,1008.09
2016-07-31T05:44:41.955Z,1008.14
2016-07-31T05:45:41.987Z,1008.19
2016-07-31T05:46:42.019Z,1008.16
2016-07-31T05:47:42.052Z,1008.14
2016-07-31T05:48:42.088Z,1007.93
2016-07-31T05:49:42.120Z,1007.9
2016-07-31T05:50:42.152Z,1007.87
2016-07-31T05:51:42.186Z,1008.09
2016-07-31T05:52:42.220Z,1008.04
2016-07-31T05:53:42.254Z,1008
2016-07-31T05:54:42.288Z,1008.07
2016-07-31T05:55:42.320Z,1007.92
2016-07-31T05:56:42.354Z,1008.2
2016-07-31T05:57:42.387Z,1008.31
2016-07-31T05:59:42.453Z,1008.3
2016-07-31T06:00:42.489Z,1007.99
2016-07-31T06:01:42.521Z,1007.99
2016-07-31T06:02:42.555Z,1008.16
2016-07-31T06:03:42.588Z,1008.29
2016-07-31T06:04:42.623Z,1008.38
2016-07-31T06:05:42.654Z,1008.4
2016-07-31T06:06:42.689Z,1008.43
2016-07-31T06:07:42.725Z,1008.41
2016-07-31T06:08:42.758Z,1008.51
2016-07-31T06:09:42.791Z,1008.43
2016-07-31T06:10:42.829Z,1008.11
2016-07-31T06:11:42.858Z,1008.06
2016-07-31T06:12:42.896Z,1008.04
2016-07-31T06:14:42.962Z,1007.95
2016-07-31T06:15:42.997Z,1007.91
2016-07-31T06:16:43.031Z,1007.95
2016-07-31T06:17:43.062Z,1007.92
2016-07-31T06:18:43.099Z,1007.96
2016-07-31T06:19:43.129Z,1008.25
2016-07-31T06:20:43.162Z,1008.49
2016-07-31T06:21:43.198Z,1007.99
2016-07-31T06:22:43.230Z,1007.95
2016-07-31T06:23:43.262Z,1008.34
2016-07-31T06:24:43.294Z,1007.96
2016-07-31T06:25:43.327Z,1007.89
2016-07-31T06:26:43.360Z,1007.93
2016-07-31T06:27:43.393Z,1007.98
2016-07-31T06:28:43.426Z,1007.97
2016-07-31T06:29:43.461Z,1007.85
2016-07-31T06:30:43.495Z,1007.82
2016-07-31T06:31:43.524Z,1007.78
2016-07-31T06:32:43.559Z,1007.78
2016-07-31T06:33:43.592Z,1007.83
2016-07-31T06:34:43.623Z,1007.85
2016-07-31T06:35:43.656Z,1007.92
2016-07-31T06:36:43.686Z,1007.84
2016-07-31T06:37:43.718Z,1007.87
2016-07-31T06:38:43.753Z,1007.74
2016-07-31T06:39:43.786Z,1007.73
2016-07-31T06:40:43.816Z,1007.69
2016-07-31T06:41:43.854Z,1007.69
2016-07-31T06:42:43.882Z,1007.69
2016-07-31T06:43:43.912Z,1007.66
2016-07-31T06:44:43.945Z,1007.74
2016-07-31T06:46:44.008Z,1007.96
2016-07-31T06:47:44.039Z,1008.02
2016-07-31T06:48:44.072Z,1007.81
2016-07-31T06:49:44.103Z,1007.67
2016-07-31T06:50:44.136Z,1007.65
2016-07-31T06:51:44.168Z,1007.68
2016-07-31T06:52:44.202Z,1007.72
2016-07-31T06:53:44.231Z,1008.54
2016-07-31T06:54:44.264Z,1008.52
2016-07-31T06:55:44.297Z,1007.86
2016-07-31T06:56:44.329Z,1007.96
2016-07-31T06:57:44.360Z,1008.6
2016-07-31T06:58:44.394Z,1008.98
2016-07-31T06:59:44.426Z,1009.04
2016-07-31T07:00:44.456Z,1008.23
2016-07-31T07:02:44.524Z,1009.07
2016-07-31T07:03:44.554Z,1007.95
2016-07-31T07:04:44.591Z,1008.99
2016-07-31T07:05:44.621Z,1007.78
2016-07-31T07:06:44.703Z,1007.71
2016-07-31T07:07:44.689Z,1007.81
2016-07-31T07:08:44.722Z,1007.94
2016-07-31T07:09:44.754Z,1008.35
2016-07-31T07:10:44.787Z,1008.56
2016-07-31T07:11:44.820Z,1007.98
2016-07-31T07:12:44.866Z,1008.07
2016-07-31T07:13:44.887Z,1008.04
2016-07-31T07:14:45.020Z,1008.19
2016-07-31T07:15:44.954Z,1008.63
2016-07-31T07:16:44.990Z,1009.16
2016-07-31T07:18:45.066Z,1009.14
2016-07-31T07:19:45.089Z,1009.02
2016-07-31T07:20:45.122Z,1008.9
2016-07-31T07:21:45.158Z,1008.96
2016-07-31T07:22:45.190Z,1008.95
2016-07-31T07:23:45.224Z,1008.85
2016-07-31T07:24:45.261Z,1008.43
2016-07-31T07:25:45.293Z,1008.06
2016-07-31T07:26:45.327Z,1007.94
2016-07-31T07:27:45.361Z,1008.07
2016-07-31T07:28:45.396Z,1008.45
2016-07-31T07:29:45.430Z,1008.62
2016-07-31T07:30:45.467Z,1008.75
2016-07-31T07:31:45.502Z,1008.93
2016-07-31T07:32:45.532Z,1008.88
2016-07-31T07:34:45.603Z,1008.66
2016-07-31T07:35:45.637Z,1008.44
2016-07-31T07:36:45.671Z,1008.79
2016-07-31T07:37:45.709Z,1008.7
2016-07-31T07:38:45.742Z,1008.72
2016-07-31T07:39:45.777Z,1008.7
2016-07-31T07:40:45.811Z,1008.58
2016-07-31T07:41:45.848Z,1008.7
2016-07-31T07:42:45.882Z,1008.56
2016-07-31T07:43:45.918Z,1008.68
2016-07-31T07:44:45.951Z,1008.6
2016-07-31T07:45:45.987Z,1008.59
2016-07-31T07:46:46.025Z,1008.4
2016-07-31T07:47:46.060Z,1008.48
2016-07-31T07:49:46.131Z,1008.51
2016-07-31T07:50:46.167Z,1008.34
2016-07-31T07:51:46.201Z,1008.31
2016-07-31T07:52:46.239Z,1008.26
2016-07-31T07:53:46.274Z,1008.38
2016-07-31T07:54:46.308Z,1008.02
2016-07-31T07:55:46.343Z,1008.08
2016-07-31T07:56:46.381Z,1008.02
2016-07-31T07:57:46.414Z,1007.9
2016-07-31T07:58:46.449Z,1008.01
2016-07-31T07:59:46.487Z,1007.99
2016-07-31T08:00:46.522Z,1007.94
2016-07-31T08:01:46.557Z,1007.89
2016-07-31T08:02:46.589Z,1007.87
2016-07-31T08:03:46.627Z,1007.85
2016-07-31T08:04:46.662Z,1007.84
2016-07-31T08:05:46.696Z,1007.87
2016-07-31T08:06:46.731Z,1007.78
2016-07-31T08:07:47.063Z,1007.75
2016-07-31T08:08:46.798Z,1007.75
2016-07-31T08:09:46.832Z,1007.73
2016-07-31T08:10:46.865Z,1007.77
2016-07-31T08:11:46.903Z,1007.82
2016-07-31T08:12:46.947Z,1007.81
2016-07-31T08:13:46.967Z,1007.75
2016-07-31T08:14:47.002Z,1007.85
2016-07-31T08:15:47.038Z,1007.81
2016-07-31T08:16:47.071Z,1007.81
2016-07-31T08:17:47.106Z,1007.79
2016-07-31T08:18:47.139Z,1007.78
2016-07-31T08:19:47.171Z,1007.76
2016-07-31T08:21:47.239Z,1007.72
2016-07-31T08:22:47.273Z,1007.71
2016-07-31T08:23:47.310Z,1007.67
2016-07-31T08:24:47.339Z,1007.68
2016-07-31T08:25:47.374Z,1007.65
2016-07-31T08:26:47.406Z,1007.65
2016-07-31T08:27:47.438Z,1007.61
2016-07-31T08:28:47.471Z,1007.59
2016-07-31T08:29:47.505Z,1007.66
2016-07-31T08:30:47.540Z,1007.64
2016-07-31T08:31:47.571Z,1007.99
2016-07-31T08:32:47.605Z,1007.61
2016-07-31T08:33:47.638Z,1007.84
2016-07-31T08:34:47.671Z,1008.02
2016-07-31T08:35:47.707Z,1007.78
2016-07-31T08:37:47.774Z,1007.82
2016-07-31T08:38:47.805Z,1007.68
2016-07-31T08:39:47.840Z,1007.66
2016-07-31T08:40:47.873Z,1007.78
2016-07-31T08:41:47.907Z,1007.8
2016-07-31T08:42:47.939Z,1007.73
2016-07-31T08:43:47.975Z,1007.73
2016-07-31T08:44:48.009Z,1007.67
2016-07-31T08:45:48.039Z,1007.64
2016-07-31T08:46:48.076Z,1007.62
2016-07-31T08:47:48.107Z,1007.68
2016-07-31T08:48:48.141Z,1007.66
2016-07-31T08:49:48.173Z,1007.7
2016-07-31T08:50:48.207Z,1007.71
2016-07-31T08:51:48.243Z,1007.68
2016-07-31T08:53:48.306Z,1007.69
2016-07-31T08:54:48.343Z,1007.72
2016-07-31T08:55:48.375Z,1007.65
2016-07-31T08:56:48.409Z,1007.75
2016-07-31T08:57:48.443Z,1007.65
2016-07-31T08:58:48.475Z,1007.57
2016-07-31T09:00:48.541Z,1007.54
2016-07-31T09:01:48.574Z,1007.54
2016-07-31T09:02:48.609Z,1007.51
2016-07-31T09:03:48.643Z,1007.53
2016-07-31T09:04:48.678Z,1007.58
2016-07-31T09:05:48.708Z,1007.69
2016-07-31T09:06:48.742Z,1007.6
2016-07-31T09:07:48.777Z,1007.61
2016-07-31T09:09:48.892Z,1007.55
2016-07-31T09:10:48.877Z,1007.53
2016-07-31T09:11:48.909Z,1007.52
2016-07-31T09:12:48.943Z,1007.46
2016-07-31T09:13:48.977Z,1007.46
2016-07-31T09:15:49.044Z,1007.35
2016-07-31T09:16:49.078Z,1007.35
2016-07-31T09:17:49.112Z,1007.39
2016-07-31T09:18:49.148Z,1007.35
2016-07-31T09:19:49.180Z,1007.34
2016-07-31T09:20:49.216Z,1007.36
2016-07-31T09:21:49.251Z,1007.38
2016-07-31T09:22:49.283Z,1007.4
2016-07-31T09:24:49.351Z,1007.39
2016-07-31T09:25:49.387Z,1007.43
2016-07-31T09:26:49.420Z,1007.4
2016-07-31T09:27:49.455Z,1007.41
2016-07-31T09:28:49.491Z,1007.38
2016-07-31T09:30:49.555Z,1007.4
2016-07-31T09:31:49.590Z,1007.4
2016-07-31T09:32:49.623Z,1007.38
2016-07-31T09:33:49.657Z,1007.39
2016-07-31T09:34:49.694Z,1007.34
2016-07-31T09:35:49.725Z,1007.3
2016-07-31T09:36:49.760Z,1007.31
2016-07-31T09:37:49.795Z,1007.32
2016-07-31T09:38:49.828Z,1007.32
2016-07-31T09:39:49.861Z,1007.29
2016-07-31T09:40:49.894Z,1007.27
2016-07-31T09:41:49.930Z,1007.26
2016-07-31T09:42:49.960Z,1007.23
2016-07-31T09:43:49.996Z,1007.24
2016-07-31T09:44:50.030Z,1007.27
2016-07-31T09:45:50.062Z,1007.25
2016-07-31T09:46:50.096Z,1007.24
2016-07-31T09:47:50.130Z,1007.26
2016-07-31T09:48:50.162Z,1007.24
2016-07-31T09:49:50.198Z,1007.25
2016-07-31T09:50:50.232Z,1007.23
2016-07-31T09:51:50.262Z,1007.2
2016-07-31T09:52:50.296Z,1007.19
2016-07-31T09:53:50.329Z,1007.24
2016-07-31T09:54:50.362Z,1007.25
2016-07-31T09:56:50.429Z,1007.28
2016-07-31T09:57:50.465Z,1007.3
2016-07-31T09:58:50.497Z,1007.24
2016-07-31T09:59:50.529Z,1007.24
2016-07-31T10:00:50.565Z,1007.22
2016-07-31T10:01:50.598Z,1007.24
2016-07-31T10:02:50.630Z,1007.22
2016-07-31T10:03:50.664Z,1007.23
2016-07-31T10:04:50.698Z,1007.18
2016-07-31T10:05:50.730Z,1007.17
2016-07-31T10:06:50.763Z,1007.13
2016-07-31T10:07:50.797Z,1007.16
2016-07-31T10:08:50.830Z,1007.2
2016-07-31T10:09:50.863Z,1007.16
2016-07-31T10:10:50.896Z,1007.13
2016-07-31T10:12:50.960Z,1007.12
2016-07-31T10:13:50.994Z,1007.19
2016-07-31T10:14:51.029Z,1007.17
2016-07-31T10:15:51.059Z,1007.16
2016-07-31T10:16:51.095Z,1007.21
2016-07-31T10:17:51.127Z,1007.2
2016-07-31T10:18:51.159Z,1007.2
2016-07-31T10:19:51.193Z,1007.21
2016-07-31T10:20:51.225Z,1007.21
2016-07-31T10:21:51.260Z,1007.23
2016-07-31T10:22:51.291Z,1007.18
2016-07-31T10:23:51.327Z,1007.19
2016-07-31T10:24:51.356Z,1007.16
2016-07-31T10:25:51.390Z,1007.15
2016-07-31T10:26:51.424Z,1007.13
2016-07-31T10:28:51.488Z,1007.1
2016-07-31T10:29:51.525Z,1007.12
2016-07-31T10:30:51.555Z,1007.07
2016-07-31T10:31:51.591Z,1007.08
2016-07-31T10:32:51.625Z,1007.04
2016-07-31T10:33:51.663Z,1007.04
2016-07-31T10:34:51.689Z,1007.04
2016-07-31T10:35:51.722Z,1007.09
2016-07-31T10:36:51.755Z,1007.06
2016-07-31T10:37:51.786Z,1007.11
2016-07-31T10:38:51.819Z,1007.13
2016-07-31T10:39:51.854Z,1007.18
2016-07-31T10:40:51.887Z,1007.19
2016-07-31T10:41:51.917Z,1007.18
2016-07-31T10:42:51.952Z,1007.19
2016-07-31T10:44:52.017Z,1007.25
2016-07-31T10:45:52.052Z,1007.28
2016-07-31T10:46:52.085Z,1007.19
2016-07-31T10:47:52.118Z,1007.18
2016-07-31T10:48:52.149Z,1007.14
2016-07-31T10:49:52.184Z,1007.14
2016-07-31T10:50:52.215Z,1007.1
2016-07-31T10:51:52.250Z,1007.09
2016-07-31T10:52:52.282Z,1007.09
2016-07-31T10:53:52.313Z,1007.08
2016-07-31T10:54:52.348Z,1007.11
2016-07-31T10:55:52.382Z,1007
2016-07-31T10:56:52.416Z,1006.98
2016-07-31T10:57:52.447Z,1006.96
2016-07-31T10:59:52.516Z,1006.98
2016-07-31T11:00:52.546Z,1006.98
2016-07-31T11:01:52.582Z,1006.97
2016-07-31T11:02:52.616Z,1006.94
2016-07-31T11:03:52.648Z,1006.94
2016-07-31T11:04:52.679Z,1006.95
2016-07-31T11:05:52.713Z,1006.9
2016-07-31T11:06:52.748Z,1006.91
2016-07-31T11:07:52.778Z,1006.88
2016-07-31T11:08:52.811Z,1006.87
2016-07-31T11:09:52.846Z,1006.9
2016-07-31T11:10:52.879Z,1006.89
2016-07-31T11:11:52.909Z,1006.91
2016-07-31T11:12:52.943Z,1006.92
2016-07-31T11:13:52.976Z,1006.9
2016-07-31T11:14:53.008Z,1006.87
2016-07-31T11:15:53.041Z,1006.87
2016-07-31T11:16:53.076Z,1006.89
2016-07-31T11:17:53.107Z,1006.89
2016-07-31T11:18:53.141Z,1006.91
2016-07-31T11:19:53.476Z,1006.91
2016-07-31T11:20:53.206Z,1006.9
2016-07-31T11:21:53.240Z,1006.89
2016-07-31T11:22:53.275Z,1006.89
2016-07-31T11:23:53.304Z,1006.89
2016-07-31T11:24:53.337Z,1006.9
2016-07-31T11:25:53.423Z,1006.84
2016-07-31T11:26:53.403Z,1006.83
2016-07-31T11:27:53.437Z,1006.81
2016-07-31T11:28:53.470Z,1006.81
2016-07-31T11:29:53.501Z,1006.81
2016-07-31T11:31:53.570Z,1006.75
2016-07-31T11:32:53.602Z,1006.76
2016-07-31T11:33:53.635Z,1006.76
2016-07-31T11:34:53.666Z,1006.78
2016-07-31T11:35:53.701Z,1006.8
2016-07-31T11:36:53.731Z,1006.85
2016-07-31T11:37:53.764Z,1006.78
2016-07-31T11:38:53.799Z,1006.79
2016-07-31T11:39:53.830Z,1006.74
2016-07-31T11:40:53.862Z,1006.73
2016-07-31T11:41:53.897Z,1006.71
2016-07-31T11:42:53.929Z,1006.69
2016-07-31T11:43:53.961Z,1006.69
2016-07-31T11:44:53.995Z,1006.72
2016-07-31T11:45:54.030Z,1006.71
2016-07-31T11:47:54.094Z,1006.67
2016-07-31T11:48:54.127Z,1006.63
2016-07-31T11:49:54.159Z,1006.68
2016-07-31T11:50:54.192Z,1006.59
2016-07-31T11:51:54.225Z,1006.58
2016-07-31T11:52:54.257Z,1006.55
2016-07-31T11:53:54.289Z,1006.52
2016-07-31T11:54:54.324Z,1006.52
2016-07-31T11:55:54.354Z,1006.51
2016-07-31T11:56:54.388Z,1006.54
2016-07-31T11:57:54.421Z,1006.51
2016-07-31T11:58:54.455Z,1006.52
2016-07-31T11:59:54.487Z,1006.46
2016-07-31T12:00:54.518Z,1006.51
2016-07-31T12:01:54.553Z,1006.48
2016-07-31T12:03:54.617Z,1006.45
2016-07-31T12:04:54.649Z,1006.41
2016-07-31T12:05:54.682Z,1006.38
2016-07-31T12:06:54.713Z,1006.39
2016-07-31T12:07:54.747Z,1006.39
2016-07-31T12:08:54.781Z,1006.36
2016-07-31T12:09:54.814Z,1006.34
2016-07-31T12:10:54.845Z,1006.32
2016-07-31T12:11:54.879Z,1006.32
2016-07-31T12:12:54.912Z,1006.24
2016-07-31T12:13:54.943Z,1006.25
2016-07-31T12:14:54.976Z,1006.23
2016-07-31T12:15:55.009Z,1006.25
2016-07-31T12:16:55.043Z,1006.23
2016-07-31T12:17:55.072Z,1006.23
2016-07-31T12:19:55.141Z,1006.21
2016-07-31T12:20:55.172Z,1006.17
2016-07-31T12:21:55.203Z,1006.2
2016-07-31T12:22:55.236Z,1006.2
2016-07-31T12:23:55.269Z,1006.19
2016-07-31T12:24:55.303Z,1006.15
2016-07-31T12:25:55.333Z,1006.12
2016-07-31T12:26:55.369Z,1006.12
2016-07-31T12:27:55.399Z,1006.09
2016-07-31T12:28:55.430Z,1006.13
2016-07-31T12:29:55.466Z,1006.1
2016-07-31T12:30:55.496Z,1006.05
2016-07-31T12:31:55.529Z,1006.03
2016-07-31T12:32:55.564Z,1006.02
2016-07-31T12:34:55.629Z,1005.99
2016-07-31T12:35:55.662Z,1005.96
2016-07-31T12:36:55.691Z,1005.96
2016-07-31T12:37:55.723Z,1005.95
2016-07-31T12:38:55.756Z,1005.94
2016-07-31T12:39:55.790Z,1005.94
2016-07-31T12:40:55.820Z,1005.95
2016-07-31T12:41:55.855Z,1005.95
2016-07-31T12:42:55.887Z,1005.99
2016-07-31T12:43:55.919Z,1006
2016-07-31T12:44:55.953Z,1005.97
2016-07-31T12:45:55.983Z,1005.92
2016-07-31T12:46:56.015Z,1005.92
2016-07-31T12:47:56.048Z,1005.91
2016-07-31T12:48:56.080Z,1005.86
2016-07-31T12:49:56.112Z,1005.85
2016-07-31T12:50:56.146Z,1005.88
2016-07-31T12:51:56.176Z,1005.88
2016-07-31T12:52:56.211Z,1005.91
2016-07-31T12:53:56.242Z,1005.91
2016-07-31T12:54:56.278Z,1005.81